Time;durP1;ratioP1;P1;durP2;ratioP2;P2;SDS_P1;SDS_P2;PMS_P1;PMS_P2;Temp;Humidity;BMP_temperature;BMP_pressure;BME280_temperature;BME280_humidity;BME280_pressure;Samples;Min_cycle;Max_cycle;Signal;HPM_P1;HPM_P2
2023/08/29 11:03:03;;;;;;;;;;;;;;;31.28;67.82;99642.82;1822535;78;20129;-73
2023/08/29 11:05:31;;;;;;;;;;;;;;;31.27;67.04;99641.18;1834983;77;20177;-78
2023/08/29 11:08:23;;;;;;;;;;;;;;;31.27;67.04;99637.97;1828700;77;20131;-74
2023/08/29 11:14:02;;;;;;;;;;;;;;;31.32;68.65;99637.28;1829940;78;20140;-80
2023/08/29 11:16:30;;;;;;;;;;;;;;;31.34;68.92;99631.14;1829107;77;20252;-79
2023/08/29 11:19:07;;;;;;;;;;;;;;;31.36;67.89;99636.59;1831093;77;20082;-77
2023/08/29 11:21:34;;;;;;;;;;;;;;;31.36;67.05;99631.20;1837974;77;20525;-76
2023/08/29 11:24:01;;;;;;;;;;;;;;;31.39;67.12;99633.96;1834719;77;20137;-76
2023/08/29 11:26:27;;;;;;;;;;;;;;;31.38;67.03;99634.48;1840062;77;20133;-81
2023/08/29 11:28:56;;;;;;;;;;;;;;;31.37;67.06;99642.27;1814165;77;20896;-86
2023/08/29 11:31:23;;;;;;;;;;;;;;;31.35;67.05;99640.85;1836540;77;20178;-75
2023/08/29 11:33:50;;;;;;;;;;;;;;;31.35;67.31;99638.98;1832426;77;20162;-73
2023/08/29 11:36:17;;;;;;;;;;;;;;;31.37;66.37;99640.92;1832524;77;20092;-79
2023/08/29 11:38:45;;;;;;;;;;;;;;;31.36;67.05;99642.49;1835640;77;20171;-79
2023/08/29 11:41:13;;;;;;;;;;;;;;;31.38;66.27;99641.73;1833350;77;20106;-82
2023/08/29 11:43:40;;;;;;;;;;;;;;;31.38;65.90;99637.18;1830038;77;20082;-76
2023/08/29 11:46:08;;;;;;;;;;;;;;;31.39;65.07;99639.34;1828442;77;20103;-77
2023/08/29 11:48:35;;;;;;;;;;;;;;;31.37;65.17;99636.88;1831808;77;20280;-72
2023/08/29 11:51:04;;;;;;;;;;;;;;;31.38;65.60;99640.39;1829605;77;20136;-87
2023/08/29 11:53:35;;;;;;;;;;;;;;;31.39;66.29;99633.96;1846956;77;20106;-78
2023/08/29 11:56:03;;;;;;;;;;;;;;;31.40;66.96;99636.42;1831703;77;20101;-76
2023/08/29 11:58:31;;;;;;;;;;;;;;;31.42;67.46;99634.32;1829340;78;20823;-74
2023/08/29 12:01:01;;;;;;;;;;;;;;;31.44;67.66;99626.84;1831596;77;20116;-77
2023/08/29 12:21:39;;;;;;;;;;;;;;;31.43;66.09;99613.09;1836260;77;20139;-76
2023/08/29 12:24:11;;;;;;;;;;;;;;;31.43;65.82;99614.96;1828487;77;20129;-75
2023/08/29 12:26:38;;;;;;;;;;;;;;;31.42;66.09;99611.97;1826033;78;20429;-74
2023/08/29 12:29:05;;;;;;;;;;;;;;;31.40;66.33;99615.42;1805171;77;20127;-77
2023/08/29 12:31:32;;;;;;;;;;;;;;;31.40;65.76;99622.15;1862962;77;20426;-77
2023/08/29 13:37:19;;;;;;;;;;;;;;;31.26;65.46;99630.13;1814000;78;20437;-80
2023/08/29 13:39:46;;;;;;;;;;;;;;;31.25;66.33;99625.27;1814995;78;20133;-81
2023/08/29 13:42:15;;;;;;;;;;;;;;;31.27;67.38;99623.70;1754099;78;20408;-78
2023/08/29 13:44:44;;;;;;;;;;;;;;;31.28;68.29;99625.34;1826211;78;20142;-85
2023/08/29 13:47:11;;;;;;;;;;;;;;;31.28;67.96;99622.64;1822793;79;20089;-82
2023/08/29 13:49:38;;;;;;;;;;;;;;;31.27;67.84;99618.31;1818742;78;20199;-77
2023/08/29 13:52:08;;;;;;;;;;;;;;;31.25;68.24;99622.58;1836180;78;20136;-72
2023/08/29 13:54:35;;;;;;;;;;;;;;;31.24;67.87;99620.94;1832124;78;20125;-83
2023/08/29 13:57:03;;;;;;;;;;;;;;;31.22;68.05;99617.66;1813930;78;20117;-82
2023/08/29 13:59:31;;;;;;;;;;;;;;;31.21;68.19;99615.20;1821561;78;20126;-78
2023/08/29 14:01:57;;;;;;;;;;;;;;;31.18;68.32;99614.34;1844922;78;20136;-75
2023/08/29 14:04:24;;;;;;;;;;;;;;;31.14;68.51;99612.11;1847189;78;20139;-70
2023/08/29 14:06:51;;;;;;;;;;;;;;;31.12;68.06;99607.48;1846562;78;20136;-76
